sensor_id;sensor_type;location;lat;lon;timestamp;P1;durP1;ratioP1;P2;durP2;ratioP2
71353;SDS011;59393;51.652;4.864;2023-02-22T00:01:08;36.67;;;14.25;;
71353;SDS011;59393;51.652;4.864;2023-02-22T00:03:43;41.17;;;14.00;;
71353;SDS011;59393;51.652;4.864;2023-02-22T00:06:14;48.10;;;17.37;;
71353;SDS011;59393;51.652;4.864;2023-02-22T00:08:41;37.15;;;12.48;;
71353;SDS011;59393;51.652;4.864;2023-02-22T00:11:07;36.50;;;14.27;;
71353;SDS011;59393;51.652;4.864;2023-02-22T00:13:34;49.10;;;18.15;;
71353;SDS011;59393;51.652;4.864;2023-02-22T00:16:00;40.25;;;13.90;;
71353;SDS011;59393;51.652;4.864;2023-02-22T00:18:27;47.13;;;16.33;;
71353;SDS011;59393;51.652;4.864;2023-02-22T00:20:54;39.75;;;14.45;;
71353;SDS011;59393;51.652;4.864;2023-02-22T00:23:23;44.25;;;15.52;;
71353;SDS011;59393;51.652;4.864;2023-02-22T00:25:50;41.42;;;15.20;;
71353;SDS011;59393;51.652;4.864;2023-02-22T00:28:16;43.05;;;17.08;;
71353;SDS011;59393;51.652;4.864;2023-02-22T00:30:43;47.53;;;16.53;;
71353;SDS011;59393;51.652;4.864;2023-02-22T00:33:10;50.85;;;17.70;;
71353;SDS011;59393;51.652;4.864;2023-02-22T00:35:36;52.03;;;16.40;;
71353;SDS011;59393;51.652;4.864;2023-02-22T00:38:02;50.00;;;17.63;;
71353;SDS011;59393;51.652;4.864;2023-02-22T00:40:29;55.53;;;17.73;;
71353;SDS011;59393;51.652;4.864;2023-02-22T00:42:56;43.57;;;15.77;;
71353;SDS011;59393;51.652;4.864;2023-02-22T00:45:23;39.67;;;14.40;;
71353;SDS011;59393;51.652;4.864;2023-02-22T00:47:49;41.95;;;15.05;;
71353;SDS011;59393;51.652;4.864;2023-02-22T00:50:17;44.22;;;15.57;;
71353;SDS011;59393;51.652;4.864;2023-02-22T00:52:43;43.80;;;15.05;;
71353;SDS011;59393;51.652;4.864;2023-02-22T00:55:13;42.50;;;15.40;;
71353;SDS011;59393;51.652;4.864;2023-02-22T00:57:40;40.88;;;13.70;;
71353;SDS011;59393;51.652;4.864;2023-02-22T01:00:07;42.35;;;12.80;;
71353;SDS011;59393;51.652;4.864;2023-02-22T01:02:40;47.55;;;15.40;;
71353;SDS011;59393;51.652;4.864;2023-02-22T01:05:08;48.65;;;14.75;;
71353;SDS011;59393;51.652;4.864;2023-02-22T01:07:34;50.40;;;17.67;;
71353;SDS011;59393;51.652;4.864;2023-02-22T01:10:00;50.95;;;15.27;;
71353;SDS011;59393;51.652;4.864;2023-02-22T01:12:27;58.42;;;18.98;;
71353;SDS011;59393;51.652;4.864;2023-02-22T01:14:53;40.38;;;14.93;;
71353;SDS011;59393;51.652;4.864;2023-02-22T01:17:21;44.55;;;15.77;;
71353;SDS011;59393;51.652;4.864;2023-02-22T01:19:47;40.10;;;13.80;;
71353;SDS011;59393;51.652;4.864;2023-02-22T01:22:13;49.20;;;16.95;;
71353;SDS011;59393;51.652;4.864;2023-02-22T01:24:39;45.25;;;15.55;;
71353;SDS011;59393;51.652;4.864;2023-02-22T01:27:05;49.53;;;16.65;;
71353;SDS011;59393;51.652;4.864;2023-02-22T01:29:31;44.27;;;15.43;;
71353;SDS011;59393;51.652;4.864;2023-02-22T01:31:57;41.20;;;13.95;;
71353;SDS011;59393;51.652;4.864;2023-02-22T01:34:25;44.60;;;15.48;;
71353;SDS011;59393;51.652;4.864;2023-02-22T01:36:51;51.78;;;16.33;;
71353;SDS011;59393;51.652;4.864;2023-02-22T01:39:17;47.75;;;14.98;;
71353;SDS011;59393;51.652;4.864;2023-02-22T01:41:44;46.53;;;15.73;;
71353;SDS011;59393;51.652;4.864;2023-02-22T01:46:42;58.67;;;19.50;;
71353;SDS011;59393;51.652;4.864;2023-02-22T01:49:08;46.95;;;14.40;;
71353;SDS011;59393;51.652;4.864;2023-02-22T01:51:39;46.83;;;14.73;;
71353;SDS011;59393;51.652;4.864;2023-02-22T01:54:15;47.00;;;14.93;;
71353;SDS011;59393;51.652;4.864;2023-02-22T01:56:47;50.85;;;15.70;;
71353;SDS011;59393;51.652;4.864;2023-02-22T01:59:15;55.92;;;15.38;;
71353;SDS011;59393;51.652;4.864;2023-02-22T02:01:42;56.35;;;17.67;;
71353;SDS011;59393;51.652;4.864;2023-02-22T02:04:18;46.58;;;16.55;;
71353;SDS011;59393;51.652;4.864;2023-02-22T02:06:44;51.97;;;16.40;;
71353;SDS011;59393;51.652;4.864;2023-02-22T02:09:19;47.75;;;17.08;;
71353;SDS011;59393;51.652;4.864;2023-02-22T02:11:47;52.30;;;15.90;;
71353;SDS011;59393;51.652;4.864;2023-02-22T02:14:14;37.78;;;15.55;;
71353;SDS011;59393;51.652;4.864;2023-02-22T02:16:44;41.25;;;14.82;;
71353;SDS011;59393;51.652;4.864;2023-02-22T02:19:20;48.13;;;13.67;;
71353;SDS011;59393;51.652;4.864;2023-02-22T02:35:05;37.08;;;13.48;;
71353;SDS011;59393;51.652;4.864;2023-02-22T02:42:43;37.38;;;13.23;;
71353;SDS011;59393;51.652;4.864;2023-02-22T02:45:17;25.17;;;10.33;;
71353;SDS011;59393;51.652;4.864;2023-02-22T02:47:45;31.42;;;10.43;;
71353;SDS011;59393;51.652;4.864;2023-02-22T02:50:20;43.30;;;12.82;;
71353;SDS011;59393;51.652;4.864;2023-02-22T02:52:48;32.00;;;11.07;;
71353;SDS011;59393;51.652;4.864;2023-02-22T02:55:15;35.92;;;11.82;;
71353;SDS011;59393;51.652;4.864;2023-02-22T02:57:41;34.73;;;12.50;;
71353;SDS011;59393;51.652;4.864;2023-02-22T03:00:07;44.35;;;13.20;;
71353;SDS011;59393;51.652;4.864;2023-02-22T03:10:24;39.55;;;13.75;;
71353;SDS011;59393;51.652;4.864;2023-02-22T03:15:36;34.22;;;11.35;;
71353;SDS011;59393;51.652;4.864;2023-02-22T03:18:08;38.20;;;12.77;;
71353;SDS011;59393;51.652;4.864;2023-02-22T03:20:58;30.53;;;12.13;;
71353;SDS011;59393;51.652;4.864;2023-02-22T03:23:33;28.75;;;10.50;;
71353;SDS011;59393;51.652;4.864;2023-02-22T03:26:03;47.72;;;13.70;;
71353;SDS011;59393;51.652;4.864;2023-02-22T03:28:29;31.50;;;10.75;;
71353;SDS011;59393;51.652;4.864;2023-02-22T03:30:58;31.60;;;10.68;;
71353;SDS011;59393;51.652;4.864;2023-02-22T03:33:32;27.70;;;10.33;;
71353;SDS011;59393;51.652;4.864;2023-02-22T03:36:23;33.17;;;11.48;;
71353;SDS011;59393;51.652;4.864;2023-02-22T03:38:49;41.63;;;13.00;;
71353;SDS011;59393;51.652;4.864;2023-02-22T03:41:16;31.25;;;10.57;;
71353;SDS011;59393;51.652;4.864;2023-02-22T03:43:46;36.08;;;9.98;;
71353;SDS011;59393;51.652;4.864;2023-02-22T03:46:13;29.97;;;10.87;;
71353;SDS011;59393;51.652;4.864;2023-02-22T03:51:15;38.72;;;13.45;;
71353;SDS011;59393;51.652;4.864;2023-02-22T03:53:42;59.55;;;13.30;;
71353;SDS011;59393;51.652;4.864;2023-02-22T03:56:09;76.95;;;14.82;;
71353;SDS011;59393;51.652;4.864;2023-02-22T03:58:37;30.40;;;10.63;;
71353;SDS011;59393;51.652;4.864;2023-02-22T04:01:07;30.65;;;9.40;;
71353;SDS011;59393;51.652;4.864;2023-02-22T04:03:33;40.13;;;11.73;;
71353;SDS011;59393;51.652;4.864;2023-02-22T04:05:59;30.02;;;10.02;;
71353;SDS011;59393;51.652;4.864;2023-02-22T04:08:25;37.80;;;12.93;;
71353;SDS011;59393;51.652;4.864;2023-02-22T04:10:51;36.47;;;12.53;;
71353;SDS011;59393;51.652;4.864;2023-02-22T04:13:17;29.25;;;10.68;;
71353;SDS011;59393;51.652;4.864;2023-02-22T04:15:43;30.30;;;12.05;;
71353;SDS011;59393;51.652;4.864;2023-02-22T04:18:09;34.63;;;12.02;;
71353;SDS011;59393;51.652;4.864;2023-02-22T04:20:35;32.42;;;12.27;;
71353;SDS011;59393;51.652;4.864;2023-02-22T04:23:01;34.83;;;11.70;;
71353;SDS011;59393;51.652;4.864;2023-02-22T04:25:27;35.30;;;10.98;;
71353;SDS011;59393;51.652;4.864;2023-02-22T04:27:53;33.08;;;11.60;;
71353;SDS011;59393;51.652;4.864;2023-02-22T04:30:19;33.72;;;12.45;;
71353;SDS011;59393;51.652;4.864;2023-02-22T04:32:45;34.07;;;11.60;;
71353;SDS011;59393;51.652;4.864;2023-02-22T04:35:11;33.15;;;11.20;;
71353;SDS011;59393;51.652;4.864;2023-02-22T04:37:37;31.45;;;11.25;;
71353;SDS011;59393;51.652;4.864;2023-02-22T04:40:04;34.15;;;12.65;;
71353;SDS011;59393;51.652;4.864;2023-02-22T04:42:35;37.60;;;12.52;;
71353;SDS011;59393;51.652;4.864;2023-02-22T04:45:05;33.50;;;12.23;;
71353;SDS011;59393;51.652;4.864;2023-02-22T04:47:32;28.10;;;10.07;;
71353;SDS011;59393;51.652;4.864;2023-02-22T04:49:58;33.30;;;10.73;;
71353;SDS011;59393;51.652;4.864;2023-02-22T04:52:25;31.52;;;11.38;;
71353;SDS011;59393;51.652;4.864;2023-02-22T04:54:51;33.85;;;12.13;;
71353;SDS011;59393;51.652;4.864;2023-02-22T04:57:17;27.63;;;11.40;;
71353;SDS011;59393;51.652;4.864;2023-02-22T04:59:43;30.65;;;11.05;;
71353;SDS011;59393;51.652;4.864;2023-02-22T05:02:09;31.00;;;10.88;;
71353;SDS011;59393;51.652;4.864;2023-02-22T05:04:36;26.98;;;10.73;;
71353;SDS011;59393;51.652;4.864;2023-02-22T05:07:02;28.23;;;10.52;;
71353;SDS011;59393;51.652;4.864;2023-02-22T05:09:28;25.03;;;10.03;;
71353;SDS011;59393;51.652;4.864;2023-02-22T05:11:54;33.13;;;10.27;;
71353;SDS011;59393;51.652;4.864;2023-02-22T05:14:20;32.90;;;10.23;;
71353;SDS011;59393;51.652;4.864;2023-02-22T05:16:50;31.42;;;10.77;;
71353;SDS011;59393;51.652;4.864;2023-02-22T05:19:16;23.75;;;9.52;;
71353;SDS011;59393;51.652;4.864;2023-02-22T05:21:42;25.33;;;8.67;;
71353;SDS011;59393;51.652;4.864;2023-02-22T05:24:08;25.55;;;9.65;;
71353;SDS011;59393;51.652;4.864;2023-02-22T05:26:34;32.25;;;11.75;;
71353;SDS011;59393;51.652;4.864;2023-02-22T05:29:00;26.73;;;10.60;;
71353;SDS011;59393;51.652;4.864;2023-02-22T05:31:26;31.00;;;11.73;;
71353;SDS011;59393;51.652;4.864;2023-02-22T05:33:52;33.47;;;10.67;;
71353;SDS011;59393;51.652;4.864;2023-02-22T05:36:18;28.00;;;11.65;;
71353;SDS011;59393;51.652;4.864;2023-02-22T05:38:44;27.60;;;11.07;;
71353;SDS011;59393;51.652;4.864;2023-02-22T05:41:10;25.45;;;10.32;;
71353;SDS011;59393;51.652;4.864;2023-02-22T05:43:37;25.97;;;10.33;;
71353;SDS011;59393;51.652;4.864;2023-02-22T05:46:03;30.55;;;10.38;;
71353;SDS011;59393;51.652;4.864;2023-02-22T05:48:34;26.63;;;10.80;;
71353;SDS011;59393;51.652;4.864;2023-02-22T05:51:01;37.60;;;13.77;;
71353;SDS011;59393;51.652;4.864;2023-02-22T05:53:28;25.92;;;10.68;;
71353;SDS011;59393;51.652;4.864;2023-02-22T05:55:54;26.70;;;9.37;;
71353;SDS011;59393;51.652;4.864;2023-02-22T05:58:20;24.27;;;8.98;;
71353;SDS011;59393;51.652;4.864;2023-02-22T06:00:47;20.88;;;8.57;;
71353;SDS011;59393;51.652;4.864;2023-02-22T06:03:13;27.02;;;10.73;;
71353;SDS011;59393;51.652;4.864;2023-02-22T06:05:39;24.70;;;9.38;;
71353;SDS011;59393;51.652;4.864;2023-02-22T06:08:05;27.37;;;10.50;;
71353;SDS011;59393;51.652;4.864;2023-02-22T06:10:32;25.63;;;10.50;;
71353;SDS011;59393;51.652;4.864;2023-02-22T06:12:58;25.48;;;10.23;;
71353;SDS011;59393;51.652;4.864;2023-02-22T06:15:25;26.55;;;10.80;;
71353;SDS011;59393;51.652;4.864;2023-02-22T06:17:51;28.83;;;11.07;;
71353;SDS011;59393;51.652;4.864;2023-02-22T06:20:19;26.10;;;11.70;;
71353;SDS011;59393;51.652;4.864;2023-02-22T06:22:47;22.77;;;9.95;;
71353;SDS011;59393;51.652;4.864;2023-02-22T06:25:14;30.33;;;10.55;;
71353;SDS011;59393;51.652;4.864;2023-02-22T06:27:40;25.17;;;11.32;;
71353;SDS011;59393;51.652;4.864;2023-02-22T06:30:07;29.02;;;11.85;;
71353;SDS011;59393;51.652;4.864;2023-02-22T06:32:33;29.17;;;11.03;;
71353;SDS011;59393;51.652;4.864;2023-02-22T06:34:59;20.98;;;8.07;;
71353;SDS011;59393;51.652;4.864;2023-02-22T06:37:25;28.92;;;11.32;;
71353;SDS011;59393;51.652;4.864;2023-02-22T06:39:51;22.98;;;9.68;;
71353;SDS011;59393;51.652;4.864;2023-02-22T06:42:17;25.57;;;10.97;;
71353;SDS011;59393;51.652;4.864;2023-02-22T06:44:43;23.27;;;10.75;;
71353;SDS011;59393;51.652;4.864;2023-02-22T06:47:09;28.10;;;10.45;;
71353;SDS011;59393;51.652;4.864;2023-02-22T06:49:35;28.40;;;10.85;;
71353;SDS011;59393;51.652;4.864;2023-02-22T06:52:03;25.27;;;10.07;;
71353;SDS011;59393;51.652;4.864;2023-02-22T06:54:29;32.57;;;12.87;;
71353;SDS011;59393;51.652;4.864;2023-02-22T06:56:55;33.38;;;14.35;;
71353;SDS011;59393;51.652;4.864;2023-02-22T06:59:21;27.83;;;10.95;;
71353;SDS011;59393;51.652;4.864;2023-02-22T07:01:47;30.58;;;11.77;;
71353;SDS011;59393;51.652;4.864;2023-02-22T07:04:14;28.38;;;11.43;;
71353;SDS011;59393;51.652;4.864;2023-02-22T07:06:46;29.63;;;11.20;;
71353;SDS011;59393;51.652;4.864;2023-02-22T07:09:13;34.72;;;13.30;;
71353;SDS011;59393;51.652;4.864;2023-02-22T07:11:42;28.85;;;11.55;;
71353;SDS011;59393;51.652;4.864;2023-02-22T07:14:08;26.52;;;11.10;;
71353;SDS011;59393;51.652;4.864;2023-02-22T07:16:35;25.65;;;11.15;;
71353;SDS011;59393;51.652;4.864;2023-02-22T07:19:01;25.60;;;10.60;;
71353;SDS011;59393;51.652;4.864;2023-02-22T07:21:30;29.90;;;10.07;;
71353;SDS011;59393;51.652;4.864;2023-02-22T07:23:59;23.30;;;9.13;;
71353;SDS011;59393;51.652;4.864;2023-02-22T07:26:28;27.27;;;10.50;;
71353;SDS011;59393;51.652;4.864;2023-02-22T07:28:54;24.85;;;10.35;;
71353;SDS011;59393;51.652;4.864;2023-02-22T07:31:20;25.20;;;10.37;;
71353;SDS011;59393;51.652;4.864;2023-02-22T07:33:46;27.95;;;9.98;;
71353;SDS011;59393;51.652;4.864;2023-02-22T07:36:13;24.80;;;10.93;;
71353;SDS011;59393;51.652;4.864;2023-02-22T07:38:42;24.60;;;10.10;;
71353;SDS011;59393;51.652;4.864;2023-02-22T07:41:08;23.93;;;10.20;;
71353;SDS011;59393;51.652;4.864;2023-02-22T07:43:34;25.38;;;10.25;;
71353;SDS011;59393;51.652;4.864;2023-02-22T07:46:01;27.15;;;10.82;;
71353;SDS011;59393;51.652;4.864;2023-02-22T07:48:27;24.65;;;10.25;;
71353;SDS011;59393;51.652;4.864;2023-02-22T07:50:53;23.55;;;10.65;;
71353;SDS011;59393;51.652;4.864;2023-02-22T07:53:21;26.33;;;10.33;;
71353;SDS011;59393;51.652;4.864;2023-02-22T07:55:48;23.83;;;10.57;;
71353;SDS011;59393;51.652;4.864;2023-02-22T07:58:15;26.90;;;11.85;;
71353;SDS011;59393;51.652;4.864;2023-02-22T08:00:42;23.65;;;9.40;;
71353;SDS011;59393;51.652;4.864;2023-02-22T08:03:09;23.40;;;10.50;;
71353;SDS011;59393;51.652;4.864;2023-02-22T08:05:36;21.93;;;9.07;;
71353;SDS011;59393;51.652;4.864;2023-02-22T08:08:02;26.40;;;10.93;;
71353;SDS011;59393;51.652;4.864;2023-02-22T08:10:30;22.98;;;10.65;;
71353;SDS011;59393;51.652;4.864;2023-02-22T08:12:56;26.45;;;11.00;;
71353;SDS011;59393;51.652;4.864;2023-02-22T08:17:48;25.60;;;11.10;;
71353;SDS011;59393;51.652;4.864;2023-02-22T08:20:14;23.80;;;11.05;;
71353;SDS011;59393;51.652;4.864;2023-02-22T08:22:43;23.13;;;9.68;;
71353;SDS011;59393;51.652;4.864;2023-02-22T08:25:19;24.55;;;11.10;;
71353;SDS011;59393;51.652;4.864;2023-02-22T08:27:45;21.98;;;10.02;;
71353;SDS011;59393;51.652;4.864;2023-02-22T08:30:16;24.67;;;12.57;;
71353;SDS011;59393;51.652;4.864;2023-02-22T08:32:44;25.58;;;11.20;;
71353;SDS011;59393;51.652;4.864;2023-02-22T08:35:11;26.35;;;12.15;;
71353;SDS011;59393;51.652;4.864;2023-02-22T08:37:40;23.98;;;11.27;;
71353;SDS011;59393;51.652;4.864;2023-02-22T08:40:06;24.75;;;11.40;;
71353;SDS011;59393;51.652;4.864;2023-02-22T08:42:32;21.67;;;11.13;;
71353;SDS011;59393;51.652;4.864;2023-02-22T08:44:58;21.48;;;10.43;;
71353;SDS011;59393;51.652;4.864;2023-02-22T08:47:24;24.42;;;11.70;;
71353;SDS011;59393;51.652;4.864;2023-02-22T08:49:50;26.85;;;11.63;;
71353;SDS011;59393;51.652;4.864;2023-02-22T08:52:17;31.52;;;14.13;;
71353;SDS011;59393;51.652;4.864;2023-02-22T08:54:44;27.57;;;11.20;;
71353;SDS011;59393;51.652;4.864;2023-02-22T08:57:10;26.73;;;10.93;;
71353;SDS011;59393;51.652;4.864;2023-02-22T08:59:36;27.25;;;10.48;;
71353;SDS011;59393;51.652;4.864;2023-02-22T09:02:02;29.10;;;11.50;;
71353;SDS011;59393;51.652;4.864;2023-02-22T09:04:29;22.52;;;9.43;;
71353;SDS011;59393;51.652;4.864;2023-02-22T09:06:55;24.40;;;11.30;;
71353;SDS011;59393;51.652;4.864;2023-02-22T09:09:21;32.50;;;13.10;;
71353;SDS011;59393;51.652;4.864;2023-02-22T09:11:47;27.23;;;11.50;;
71353;SDS011;59393;51.652;4.864;2023-02-22T09:14:13;25.65;;;10.95;;
71353;SDS011;59393;51.652;4.864;2023-02-22T09:16:40;23.90;;;11.35;;
71353;SDS011;59393;51.652;4.864;2023-02-22T09:19:06;29.03;;;13.73;;
71353;SDS011;59393;51.652;4.864;2023-02-22T09:21:32;24.42;;;10.23;;
71353;SDS011;59393;51.652;4.864;2023-02-22T09:23:58;25.48;;;11.32;;
71353;SDS011;59393;51.652;4.864;2023-02-22T09:26:32;27.33;;;12.30;;
71353;SDS011;59393;51.652;4.864;2023-02-22T09:28:58;29.67;;;11.47;;
71353;SDS011;59393;51.652;4.864;2023-02-22T09:31:24;24.35;;;10.07;;
71353;SDS011;59393;51.652;4.864;2023-02-22T09:33:50;24.80;;;11.55;;
71353;SDS011;59393;51.652;4.864;2023-02-22T09:36:16;25.38;;;12.10;;
71353;SDS011;59393;51.652;4.864;2023-02-22T09:38:45;22.95;;;10.27;;
71353;SDS011;59393;51.652;4.864;2023-02-22T09:41:19;24.73;;;10.80;;
71353;SDS011;59393;51.652;4.864;2023-02-22T09:43:55;23.00;;;11.02;;
71353;SDS011;59393;51.652;4.864;2023-02-22T09:49:02;19.70;;;9.70;;
71353;SDS011;59393;51.652;4.864;2023-02-22T09:51:32;22.98;;;10.02;;
71353;SDS011;59393;51.652;4.864;2023-02-22T09:53:59;20.13;;;8.77;;
71353;SDS011;59393;51.652;4.864;2023-02-22T09:56:26;19.80;;;8.90;;
71353;SDS011;59393;51.652;4.864;2023-02-22T09:58:55;20.33;;;9.80;;
71353;SDS011;59393;51.652;4.864;2023-02-22T10:01:32;22.15;;;8.52;;
71353;SDS011;59393;51.652;4.864;2023-02-22T10:06:29;18.50;;;8.33;;
71353;SDS011;59393;51.652;4.864;2023-02-22T10:08:58;19.20;;;8.65;;
71353;SDS011;59393;51.652;4.864;2023-02-22T10:14:00;18.70;;;8.77;;
71353;SDS011;59393;51.652;4.864;2023-02-22T10:22:02;19.35;;;9.45;;
71353;SDS011;59393;51.652;4.864;2023-02-22T10:27:15;17.42;;;8.68;;
71353;SDS011;59393;51.652;4.864;2023-02-22T10:29:43;17.98;;;9.23;;
71353;SDS011;59393;51.652;4.864;2023-02-22T10:32:14;19.40;;;8.87;;
71353;SDS011;59393;51.652;4.864;2023-02-22T10:34:44;19.10;;;8.85;;
71353;SDS011;59393;51.652;4.864;2023-02-22T10:37:25;20.20;;;8.15;;
71353;SDS011;59393;51.652;4.864;2023-02-22T10:40:00;19.30;;;8.50;;
71353;SDS011;59393;51.652;4.864;2023-02-22T10:42:30;16.30;;;7.75;;
71353;SDS011;59393;51.652;4.864;2023-02-22T10:44:56;18.80;;;7.83;;
71353;SDS011;59393;51.652;4.864;2023-02-22T10:47:22;17.40;;;8.13;;
71353;SDS011;59393;51.652;4.864;2023-02-22T10:49:50;18.45;;;7.95;;
71353;SDS011;59393;51.652;4.864;2023-02-22T10:52:25;21.10;;;10.65;;
71353;SDS011;59393;51.652;4.864;2023-02-22T10:54:51;16.40;;;7.68;;
71353;SDS011;59393;51.652;4.864;2023-02-22T10:57:20;18.10;;;8.27;;
71353;SDS011;59393;51.652;4.864;2023-02-22T10:59:47;17.15;;;7.60;;
71353;SDS011;59393;51.652;4.864;2023-02-22T11:04:49;16.60;;;7.82;;
71353;SDS011;59393;51.652;4.864;2023-02-22T11:07:20;19.63;;;9.20;;
71353;SDS011;59393;51.652;4.864;2023-02-22T11:09:57;17.23;;;8.47;;
71353;SDS011;59393;51.652;4.864;2023-02-22T11:14:52;18.98;;;8.95;;
71353;SDS011;59393;51.652;4.864;2023-02-22T11:17:23;18.58;;;8.80;;
71353;SDS011;59393;51.652;4.864;2023-02-22T11:19:50;20.20;;;9.85;;
71353;SDS011;59393;51.652;4.864;2023-02-22T11:22:20;17.70;;;8.10;;
71353;SDS011;59393;51.652;4.864;2023-02-22T11:24:54;18.85;;;8.77;;
71353;SDS011;59393;51.652;4.864;2023-02-22T11:29:49;22.05;;;10.00;;
71353;SDS011;59393;51.652;4.864;2023-02-22T11:32:17;19.65;;;9.55;;
71353;SDS011;59393;51.652;4.864;2023-02-22T11:34:46;17.50;;;8.30;;
71353;SDS011;59393;51.652;4.864;2023-02-22T11:37:35;17.08;;;8.63;;
71353;SDS011;59393;51.652;4.864;2023-02-22T11:40:07;22.20;;;9.75;;
71353;SDS011;59393;51.652;4.864;2023-02-22T11:42:37;19.73;;;10.07;;
71353;SDS011;59393;51.652;4.864;2023-02-22T11:47:57;19.17;;;9.13;;
71353;SDS011;59393;51.652;4.864;2023-02-22T11:53:01;15.93;;;8.15;;
71353;SDS011;59393;51.652;4.864;2023-02-22T11:55:32;19.27;;;9.27;;
71353;SDS011;59393;51.652;4.864;2023-02-22T11:58:02;18.33;;;9.15;;
71353;SDS011;59393;51.652;4.864;2023-02-22T12:06:18;17.88;;;9.18;;
71353;SDS011;59393;51.652;4.864;2023-02-22T12:14:33;20.67;;;9.70;;
71353;SDS011;59393;51.652;4.864;2023-02-22T12:19:42;21.80;;;10.18;;
71353;SDS011;59393;51.652;4.864;2023-02-22T12:22:11;19.40;;;9.88;;
71353;SDS011;59393;51.652;4.864;2023-02-22T12:27:24;20.40;;;9.97;;
71353;SDS011;59393;51.652;4.864;2023-02-22T12:30:26;15.68;;;8.18;;
71353;SDS011;59393;51.652;4.864;2023-02-22T12:32:45;20.98;;;10.88;;
71353;SDS011;59393;51.652;4.864;2023-02-22T12:35:17;19.17;;;9.25;;
71353;SDS011;59393;51.652;4.864;2023-02-22T12:40:19;23.00;;;10.73;;
71353;SDS011;59393;51.652;4.864;2023-02-22T12:45:27;23.58;;;9.70;;
71353;SDS011;59393;51.652;4.864;2023-02-22T12:50:37;21.50;;;10.20;;
71353;SDS011;59393;51.652;4.864;2023-02-22T12:53:06;18.83;;;10.37;;
71353;SDS011;59393;51.652;4.864;2023-02-22T12:55:39;18.50;;;8.73;;
71353;SDS011;59393;51.652;4.864;2023-02-22T13:00:55;25.33;;;11.30;;
71353;SDS011;59393;51.652;4.864;2023-02-22T13:03:28;27.65;;;13.43;;
71353;SDS011;59393;51.652;4.864;2023-02-22T13:06:00;22.90;;;12.07;;
71353;SDS011;59393;51.652;4.864;2023-02-22T13:13:59;22.85;;;13.00;;
71353;SDS011;59393;51.652;4.864;2023-02-22T13:16:31;21.30;;;11.55;;
71353;SDS011;59393;51.652;4.864;2023-02-22T13:21:30;24.40;;;12.90;;
71353;SDS011;59393;51.652;4.864;2023-02-22T13:24:07;29.60;;;12.82;;
71353;SDS011;59393;51.652;4.864;2023-02-22T13:26:38;20.60;;;10.85;;
71353;SDS011;59393;51.652;4.864;2023-02-22T13:29:11;22.50;;;12.20;;
71353;SDS011;59393;51.652;4.864;2023-02-22T13:42:16;15.95;;;9.18;;
71353;SDS011;59393;51.652;4.864;2023-02-22T13:52:22;27.23;;;14.20;;
71353;SDS011;59393;51.652;4.864;2023-02-22T13:55:06;23.30;;;13.05;;
71353;SDS011;59393;51.652;4.864;2023-02-22T13:57:37;27.33;;;12.13;;
71353;SDS011;59393;51.652;4.864;2023-02-22T14:00:39;30.50;;;15.18;;
71353;SDS011;59393;51.652;4.864;2023-02-22T14:05:35;27.77;;;14.88;;
71353;SDS011;59393;51.652;4.864;2023-02-22T14:08:02;19.77;;;10.03;;
71353;SDS011;59393;51.652;4.864;2023-02-22T14:13:07;29.15;;;15.50;;
71353;SDS011;59393;51.652;4.864;2023-02-22T14:15:33;28.88;;;15.55;;
71353;SDS011;59393;51.652;4.864;2023-02-22T14:20:27;25.53;;;15.03;;
71353;SDS011;59393;51.652;4.864;2023-02-22T14:22:55;25.30;;;14.13;;
71353;SDS011;59393;51.652;4.864;2023-02-22T14:25:40;23.88;;;13.75;;
71353;SDS011;59393;51.652;4.864;2023-02-22T14:36:25;26.73;;;13.82;;
71353;SDS011;59393;51.652;4.864;2023-02-22T14:38:53;32.83;;;16.92;;
71353;SDS011;59393;51.652;4.864;2023-02-22T14:41:23;29.63;;;14.10;;
71353;SDS011;59393;51.652;4.864;2023-02-22T14:43:51;26.60;;;14.10;;
71353;SDS011;59393;51.652;4.864;2023-02-22T14:46:20;30.37;;;15.53;;
71353;SDS011;59393;51.652;4.864;2023-02-22T14:48:47;31.40;;;15.88;;
71353;SDS011;59393;51.652;4.864;2023-02-22T14:51:24;25.77;;;14.40;;
71353;SDS011;59393;51.652;4.864;2023-02-22T14:57:03;21.77;;;10.95;;
71353;SDS011;59393;51.652;4.864;2023-02-22T15:01:43;31.63;;;16.75;;
71353;SDS011;59393;51.652;4.864;2023-02-22T15:04:19;21.58;;;12.52;;
71353;SDS011;59393;51.652;4.864;2023-02-22T15:06:46;23.92;;;11.82;;
71353;SDS011;59393;51.652;4.864;2023-02-22T15:09:26;31.88;;;15.95;;
71353;SDS011;59393;51.652;4.864;2023-02-22T15:11:56;28.63;;;15.43;;
71353;SDS011;59393;51.652;4.864;2023-02-22T15:14:37;37.00;;;17.80;;
71353;SDS011;59393;51.652;4.864;2023-02-22T15:17:23;26.58;;;14.10;;
71353;SDS011;59393;51.652;4.864;2023-02-22T15:19:49;24.02;;;11.55;;
71353;SDS011;59393;51.652;4.864;2023-02-22T15:24:45;27.02;;;15.02;;
71353;SDS011;59393;51.652;4.864;2023-02-22T15:27:19;31.65;;;17.00;;
71353;SDS011;59393;51.652;4.864;2023-02-22T15:29:45;34.03;;;19.75;;
71353;SDS011;59393;51.652;4.864;2023-02-22T15:32:44;38.67;;;21.20;;
71353;SDS011;59393;51.652;4.864;2023-02-22T15:38:06;31.60;;;18.33;;
71353;SDS011;59393;51.652;4.864;2023-02-22T15:40:32;34.63;;;17.85;;
71353;SDS011;59393;51.652;4.864;2023-02-22T15:43:03;40.03;;;22.20;;
71353;SDS011;59393;51.652;4.864;2023-02-22T15:45:32;31.50;;;17.75;;
71353;SDS011;59393;51.652;4.864;2023-02-22T15:47:58;37.38;;;19.45;;
71353;SDS011;59393;51.652;4.864;2023-02-22T15:50:28;52.23;;;27.23;;
71353;SDS011;59393;51.652;4.864;2023-02-22T15:53:03;47.85;;;24.42;;
71353;SDS011;59393;51.652;4.864;2023-02-22T15:57:57;38.70;;;18.02;;
71353;SDS011;59393;51.652;4.864;2023-02-22T16:00:26;44.90;;;22.85;;
71353;SDS011;59393;51.652;4.864;2023-02-22T16:03:00;50.53;;;27.30;;
71353;SDS011;59393;51.652;4.864;2023-02-22T16:05:31;56.58;;;27.05;;
71353;SDS011;59393;51.652;4.864;2023-02-22T16:07:59;49.03;;;23.40;;
71353;SDS011;59393;51.652;4.864;2023-02-22T16:10:27;52.45;;;26.50;;
71353;SDS011;59393;51.652;4.864;2023-02-22T16:15:59;53.87;;;27.50;;
71353;SDS011;59393;51.652;4.864;2023-02-22T16:18:30;52.63;;;26.45;;
71353;SDS011;59393;51.652;4.864;2023-02-22T16:20:58;53.22;;;27.63;;
71353;SDS011;59393;51.652;4.864;2023-02-22T16:23:30;58.17;;;26.77;;
71353;SDS011;59393;51.652;4.864;2023-02-22T16:28:45;56.63;;;29.00;;
71353;SDS011;59393;51.652;4.864;2023-02-22T16:31:15;42.20;;;21.35;;
71353;SDS011;59393;51.652;4.864;2023-02-22T16:33:41;61.85;;;30.38;;
71353;SDS011;59393;51.652;4.864;2023-02-22T16:36:07;63.08;;;32.42;;
71353;SDS011;59393;51.652;4.864;2023-02-22T16:38:35;67.22;;;34.50;;
71353;SDS011;59393;51.652;4.864;2023-02-22T16:41:03;66.60;;;31.93;;
71353;SDS011;59393;51.652;4.864;2023-02-22T16:43:30;53.53;;;26.50;;
71353;SDS011;59393;51.652;4.864;2023-02-22T16:45:57;50.53;;;25.65;;
71353;SDS011;59393;51.652;4.864;2023-02-22T16:48:26;69.75;;;33.08;;
71353;SDS011;59393;51.652;4.864;2023-02-22T16:50:54;68.75;;;33.22;;
71353;SDS011;59393;51.652;4.864;2023-02-22T16:53:22;59.87;;;27.37;;
71353;SDS011;59393;51.652;4.864;2023-02-22T16:55:50;72.60;;;33.30;;
71353;SDS011;59393;51.652;4.864;2023-02-22T16:58:21;65.22;;;29.58;;
71353;SDS011;59393;51.652;4.864;2023-02-22T17:00:47;72.15;;;31.25;;
71353;SDS011;59393;51.652;4.864;2023-02-22T17:03:15;77.65;;;35.03;;
71353;SDS011;59393;51.652;4.864;2023-02-22T17:05:42;67.50;;;32.87;;